createdAt,value
2023-06-29T00:03:36.607Z,100498.91
2023-06-29T00:08:39.400Z,100497.22
2023-06-29T00:13:43.674Z,100493.94
2023-06-29T00:18:46.976Z,100494.34
2023-06-29T00:23:49.879Z,100492.63
2023-06-29T00:28:54.129Z,100494.63
2023-06-29T00:33:56.929Z,100501.13
2023-06-29T00:39:01.265Z,100494.19
2023-06-29T00:44:05.965Z,100492.59
2023-06-29T00:49:08.924Z,100491.03
2023-06-29T00:54:12.008Z,100483.22
2023-06-29T00:59:16.261Z,100481.50
2023-06-29T01:04:26.047Z,100487.25
2023-06-29T01:09:28.814Z,100486.69
2023-06-29T01:14:33.414Z,100489.50
2023-06-29T01:19:36.291Z,100479.13
2023-06-29T01:24:41.003Z,100478.41
2023-06-29T01:29:43.982Z,100475.00
2023-06-29T01:34:46.821Z,100467.16
2023-06-29T01:39:53.807Z,100458.34
2023-06-29T01:44:56.622Z,100458.63
2023-06-29T01:50:00.492Z,100463.31
2023-06-29T01:55:04.936Z,100459.03
2023-06-29T02:00:09.966Z,100464.53
2023-06-29T02:05:20.314Z,100464.69
2023-06-29T02:10:24.546Z,100462.97
2023-06-29T02:15:27.359Z,100466.66
2023-06-29T02:20:30.258Z,100466.91
2023-06-29T02:25:34.540Z,100463.34
2023-06-29T02:30:37.360Z,100459.94
2023-06-29T02:35:40.263Z,100464.63
2023-06-29T02:40:45.744Z,100457.66
2023-06-29T02:45:49.111Z,100464.91
2023-06-29T02:50:52.034Z,100466.84
2023-06-29T02:55:56.284Z,100460.03
2023-06-29T03:00:59.251Z,100473.63
2023-06-29T03:06:03.761Z,100463.97
2023-06-29T03:11:08.013Z,100467.63
2023-06-29T03:16:11.546Z,100468.75
2023-06-29T03:21:18.610Z,100462.78
2023-06-29T03:26:23.052Z,100459.09
2023-06-29T03:31:26.003Z,100457.69
2023-06-29T03:36:28.909Z,100460.22
2023-06-29T03:41:33.077Z,100457.53
2023-06-29T03:46:37.031Z,100472.84
2023-06-29T03:51:39.911Z,100455.22
2023-06-29T03:56:44.080Z,100460.75
2023-06-29T04:01:46.990Z,100448.84
2023-06-29T04:06:49.956Z,100453.03
2023-06-29T04:11:54.194Z,100450.25
2023-06-29T04:16:57.081Z,100456.69
2023-06-29T04:22:00.055Z,100459.28
2023-06-29T04:27:04.389Z,100457.84
2023-06-29T04:32:07.557Z,100444.78
2023-06-29T04:37:11.266Z,100449.28
2023-06-29T04:42:18.183Z,100447.25
2023-06-29T04:47:21.098Z,100448.00
2023-06-29T04:52:23.982Z,100447.66
2023-06-29T04:57:29.755Z,100443.06
2023-06-29T05:02:32.880Z,100435.22
2023-06-29T05:07:36.907Z,100438.03
2023-06-29T05:12:41.187Z,100436.53
2023-06-29T05:17:44.565Z,100435.25
2023-06-29T05:22:47.491Z,100442.53
2023-06-29T05:27:51.815Z,100436.94
2023-06-29T05:32:54.779Z,100439.28
2023-06-29T05:37:57.773Z,100439.84
2023-06-29T05:43:02.170Z,100442.53
2023-06-29T05:48:05.574Z,100434.72
2023-06-29T05:53:08.793Z,100435.69
2023-06-29T05:58:13.007Z,100431.06
2023-06-29T06:03:16.629Z,100436.13
2023-06-29T06:08:19.625Z,100442.41
2023-06-29T06:13:23.884Z,100434.00
2023-06-29T06:18:27.249Z,100445.28
2023-06-29T06:23:31.883Z,100437.25
2023-06-29T06:28:38.339Z,100429.03
2023-06-29T06:33:41.397Z,100432.84
2023-06-29T06:38:49.925Z,100434.44
2023-06-29T06:43:55.007Z,100438.81
2023-06-29T06:48:57.857Z,100427.50
2023-06-29T06:54:00.821Z,100429.72
2023-06-29T06:59:05.256Z,100428.75
2023-06-29T07:04:08.410Z,100421.59
2023-06-29T07:09:13.023Z,100412.75
2023-06-29T07:14:20.944Z,100411.44
2023-06-29T07:24:29.858Z,100396.97
2023-06-29T07:29:34.781Z,100400.84
2023-06-29T07:34:37.789Z,100394.56
2023-06-29T07:39:40.714Z,100386.47
2023-06-29T07:44:44.901Z,100384.63
2023-06-29T07:49:47.738Z,100378.78
2023-06-29T07:54:51.131Z,100371.22
2023-06-29T07:59:55.399Z,100378.31
2023-06-29T08:10:04.233Z,100368.75
2023-06-29T08:15:09.492Z,100360.31
2023-06-29T08:20:13.753Z,100354.56
2023-06-29T08:25:17.153Z,100354.28
2023-06-29T08:30:21.680Z,100353.16
2023-06-29T08:35:24.686Z,100343.75
2023-06-29T08:40:28.112Z,100339.72
2023-06-29T08:45:32.615Z,100341.91
2023-06-29T08:50:35.589Z,100334.28
2023-06-29T08:55:38.551Z,100331.22
2023-06-29T09:00:43.013Z,100327.13
2023-06-29T09:05:49.149Z,100325.63
2023-06-29T09:10:52.333Z,100314.09
2023-06-29T09:15:56.682Z,100312.72
2023-06-29T09:20:59.890Z,100306.56
2023-06-29T09:26:05.714Z,100298.78
2023-06-29T09:31:12.501Z,100306.06
2023-06-29T09:36:15.511Z,100292.59
2023-06-29T09:41:18.401Z,100295.06
2023-06-29T09:46:22.986Z,100296.22
2023-06-29T09:51:26.131Z,100280.91
2023-06-29T09:56:29.471Z,100277.53
2023-06-29T10:01:33.921Z,100267.53
2023-06-29T10:06:40.858Z,100263.91
2023-06-29T10:11:44.648Z,100261.63
2023-06-29T10:16:49.840Z,100258.53
2023-06-29T10:21:54.086Z,100258.28
2023-06-29T10:26:56.976Z,100238.00
2023-06-29T10:32:01.398Z,100239.28
2023-06-29T10:37:04.357Z,100241.13
2023-06-29T10:42:12.806Z,100228.97
2023-06-29T10:47:28.772Z,100238.91
2023-06-29T10:52:31.963Z,100228.25
2023-06-29T10:57:35.223Z,100229.38
2023-06-29T11:02:39.657Z,100226.00
2023-06-29T11:07:42.859Z,100212.81
2023-06-29T11:12:46.056Z,100202.03
2023-06-29T11:17:51.234Z,100200.31
2023-06-29T11:22:54.170Z,100194.19
2023-06-29T11:27:57.123Z,100186.66
2023-06-29T11:33:06.771Z,100187.53
2023-06-29T11:38:16.269Z,100178.72
2023-06-29T11:43:21.169Z,100181.66
2023-06-29T11:48:29.681Z,100173.28
2023-06-29T11:53:33.101Z,100173.53
2023-06-29T11:58:36.439Z,100166.72
2023-06-29T12:03:41.129Z,100151.53
2023-06-29T12:08:45.330Z,100152.88
2023-06-29T12:13:48.374Z,100142.81
2023-06-29T12:18:53.507Z,100140.50
2023-06-29T12:23:57.093Z,100134.28
2023-06-29T12:29:00.021Z,100133.84
2023-06-29T12:34:04.385Z,100122.91
2023-06-29T12:39:07.339Z,100109.13
2023-06-29T12:44:10.262Z,100108.66
2023-06-29T12:49:14.513Z,100109.06
2023-06-29T12:54:17.420Z,100108.59
2023-06-29T12:59:20.313Z,100106.16
2023-06-29T13:04:24.785Z,100105.16
2023-06-29T13:09:27.800Z,100109.84
2023-06-29T13:14:31.802Z,100110.84
2023-06-29T13:19:36.039Z,100101.44
2023-06-29T13:24:39.037Z,100093.00
2023-06-29T13:29:42.240Z,100092.97
2023-06-29T13:34:46.710Z,100086.13
2023-06-29T13:39:49.657Z,100090.25
2023-06-29T13:44:52.488Z,100085.47
2023-06-29T13:49:56.640Z,100087.41
2023-06-29T13:54:59.613Z,100075.75
2023-06-29T14:00:04.157Z,100077.28
2023-06-29T14:05:09.385Z,100063.63
2023-06-29T14:10:12.474Z,100058.59
2023-06-29T14:15:15.383Z,100054.75
2023-06-29T14:20:19.916Z,100055.13
2023-06-29T14:25:23.203Z,100046.38
2023-06-29T14:30:26.186Z,100034.25
2023-06-29T14:35:31.850Z,100034.78
2023-06-29T14:40:35.766Z,100023.47
2023-06-29T14:45:39.256Z,100018.28
2023-06-29T14:50:43.600Z,100019.78
2023-06-29T14:55:47.030Z,100012.38
2023-06-29T15:00:50.397Z,100009.16
2023-06-29T15:05:54.789Z,100010.97
2023-06-29T15:10:57.941Z,99998.16
2023-06-29T15:16:00.982Z,100000.75
2023-06-29T15:21:05.465Z,100002.72
2023-06-29T15:26:08.553Z,99999.47
2023-06-29T15:31:11.550Z,99991.25
2023-06-29T15:36:15.781Z,99990.06
2023-06-29T15:41:18.752Z,99994.63
2023-06-29T15:46:21.803Z,99985.00
2023-06-29T15:51:26.377Z,99974.44
2023-06-29T15:56:29.572Z,99974.63
2023-06-29T16:01:32.553Z,99968.59
2023-06-29T16:06:36.966Z,99957.03
2023-06-29T16:11:39.825Z,99953.06
2023-06-29T16:16:42.803Z,99942.06
2023-06-29T16:21:47.171Z,99942.03
2023-06-29T16:26:50.768Z,99928.00
2023-06-29T16:31:53.999Z,99926.50
2023-06-29T16:36:58.430Z,99932.75
2023-06-29T16:42:01.631Z,99928.97
2023-06-29T16:47:04.778Z,99920.50
2023-06-29T16:52:09.723Z,99922.56
2023-06-29T16:57:12.703Z,99912.75
2023-06-29T17:02:15.872Z,99919.63
2023-06-29T17:07:20.276Z,99921.50
2023-06-29T17:12:23.261Z,99916.72
2023-06-29T17:17:26.254Z,99912.31
2023-06-29T17:22:30.634Z,99914.31
2023-06-29T17:27:33.464Z,99909.25
2023-06-29T17:32:36.812Z,99904.69
2023-06-29T17:37:42.371Z,99911.31
2023-06-29T17:42:45.253Z,99905.94
2023-06-29T17:47:48.057Z,99900.56
2023-06-29T17:52:55.633Z,99899.22
2023-06-29T17:57:59.900Z,99895.97
2023-06-29T18:03:03.071Z,99893.25
2023-06-29T18:08:08.969Z,99888.69
2023-06-29T18:13:16.508Z,99884.84
2023-06-29T18:18:22.388Z,99895.16
2023-06-29T18:23:35.572Z,99899.03
2023-06-29T18:28:45.295Z,99892.09
2023-06-29T18:33:48.169Z,99880.75
2023-06-29T18:38:52.444Z,99889.03
2023-06-29T18:43:55.554Z,99886.50
2023-06-29T18:48:58.996Z,99891.22
2023-06-29T18:54:03.148Z,99887.84
2023-06-29T18:59:08.880Z,99884.44
2023-06-29T19:04:11.745Z,99885.63
2023-06-29T19:09:16.114Z,99887.66
2023-06-29T19:14:19.051Z,99891.66
2023-06-29T19:19:21.832Z,99895.56
2023-06-29T19:24:26.306Z,99893.88
2023-06-29T19:29:29.331Z,99900.28
2023-06-29T19:34:33.093Z,99903.16
2023-06-29T19:39:37.473Z,99910.25
2023-06-29T19:44:40.338Z,99914.44
2023-06-29T19:49:43.882Z,99916.00
2023-06-29T19:54:48.879Z,99930.66
2023-06-29T19:59:51.716Z,99928.13
2023-06-29T20:04:54.668Z,99931.53
2023-06-29T20:09:58.912Z,99929.81
2023-06-29T20:15:01.768Z,99929.66
2023-06-29T20:20:05.001Z,99931.53
2023-06-29T20:25:10.404Z,99928.81
2023-06-29T20:30:13.581Z,99930.50
2023-06-29T20:35:16.586Z,99926.09
2023-06-29T20:40:21.076Z,99919.56
2023-06-29T20:45:25.624Z,99925.94
2023-06-29T20:50:28.440Z,99931.22
2023-06-29T20:55:32.893Z,99924.97
2023-06-29T21:00:36.113Z,99923.09
2023-06-29T21:05:38.967Z,99926.81
2023-06-29T21:10:43.372Z,99933.91
2023-06-29T21:15:46.653Z,99930.03
2023-06-29T21:20:50.294Z,99929.88
2023-06-29T21:25:55.237Z,99931.06
2023-06-29T21:30:58.781Z,99929.19
2023-06-29T21:36:02.129Z,99930.72
2023-06-29T21:41:06.524Z,99926.16
2023-06-29T21:46:09.370Z,99923.44
2023-06-29T21:51:12.254Z,99928.84
2023-06-29T21:56:25.854Z,99933.41
2023-06-29T22:01:29.561Z,99926.16
2023-06-29T22:06:32.471Z,99918.03
2023-06-29T22:11:39.666Z,99914.81
2023-06-29T22:16:44.592Z,99909.22
2023-06-29T22:21:47.513Z,99910.59
2023-06-29T22:26:51.708Z,99908.69
2023-06-29T22:31:54.696Z,99909.63
2023-06-29T22:36:57.599Z,99905.53
2023-06-29T22:42:01.973Z,99904.69
2023-06-29T22:47:05.226Z,99902.31
2023-06-29T22:52:08.704Z,99907.56
2023-06-29T22:57:12.913Z,99901.50
2023-06-29T23:02:15.903Z,99913.84
2023-06-29T23:07:19.692Z,99904.53
2023-06-29T23:12:27.208Z,99910.25
2023-06-29T23:17:30.685Z,99909.06
2023-06-29T23:22:35.308Z,99915.94
2023-06-29T23:27:42.573Z,99906.47
2023-06-29T23:32:50.928Z,99907.63
2023-06-29T23:37:53.928Z,99909.63
2023-06-29T23:42:58.284Z,99907.94
2023-06-29T23:48:01.224Z,99912.66
2023-06-29T23:53:04.162Z,99915.03
2023-06-29T23:58:09.068Z,99901.69
